Bertrand, Nebraska
Current Conditions -  °F | °C
As of 4:55 PM on Monday 24 Nov 2014 (Local Time) from KHDE Reporting Station
Clear Clear  
Wind Chill: 34°   Ceiling: Unl
Heat Index: 40°   Visibility: 10mi
Dew Point: 18°   Wind: 10mph
Humidity: 41%   Direction: 330°NNW
Pressure: 29.96"   Gusts: NA
Location:  40.53°N, 99.63°W
Report Text: KHDE 242255Z AUTO 33009KT 10SM CLR 05/M08 A2996 RMK AO2 T00461076
Loading
Personal Weather Stations






























Interactive Weather Map New forecast layout! Learn more

10-Day Weather Forecast

Advertisements
Track Severe Weather on mobile